Time;durP1;ratioP1;P1;durP2;ratioP2;P2;SDS_P1;SDS_P2;PMS_P1;PMS_P2;Temp;Humidity;BMP_temperature;BMP_pressure;BME280_temperature;BME280_humidity;BME280_pressure;Samples;Min_cycle;Max_cycle;Signal;HPM_P1;HPM_P2
2020/12/15 00:01:29;;;;;;;3.28;2.13;;;;;;;;;;5048943;28;20053;-73
2020/12/15 00:03:55;;;;;;;2.65;1.95;;;;;;;;;;5051419;28;20037;-70
2020/12/15 00:06:21;;;;;;;3.25;1.90;;;;;;;;;;5050914;28;20054;-76
2020/12/15 00:09:08;;;;;;;2.88;1.98;;;;;;;;;;5035832;28;20055;-75
2020/12/15 00:11:34;;;;;;;2.45;1.80;;;;;;;;;;5031771;28;20048;-71
2020/12/15 00:14:00;;;;;;;2.60;1.80;;;;;;;;;;5049507;28;20041;-74
2020/12/15 00:16:27;;;;;;;3.05;1.90;;;;;;;;;;5051328;28;20040;-70
2020/12/15 00:18:53;;;;;;;3.60;2.25;;;;;;;;;;5050813;28;20439;-75
2020/12/15 00:21:20;;;;;;;4.53;2.22;;;;;;;;;;5050132;28;20072;-73
2020/12/15 00:23:47;;;;;;;2.63;1.73;;;;;;;;;;5051441;28;20064;-72
2020/12/15 00:26:13;;;;;;;3.33;2.00;;;;;;;;;;5051199;28;20048;-71
2020/12/15 00:28:40;;;;;;;3.08;1.92;;;;;;;;;;5070622;28;20044;-74
2020/12/15 00:31:33;;;;;;;2.83;2.03;;;;;;;;;;5055253;28;20143;-77
2020/12/15 00:33:59;;;;;;;2.72;1.83;;;;;;;;;;5070877;28;20480;-77
2020/12/15 00:36:45;;;;;;;2.28;1.60;;;;;;;;;;5068767;28;20445;-74
2020/12/15 00:39:12;;;;;;;3.00;1.85;;;;;;;;;;5070935;28;20433;-73
2020/12/15 00:41:39;;;;;;;2.63;2.00;;;;;;;;;;5069317;28;20067;-76
2020/12/15 00:44:25;;;;;;;2.90;1.92;;;;;;;;;;5068595;28;20044;-76
2020/12/15 00:47:11;;;;;;;2.47;2.00;;;;;;;;;;5069659;28;20098;-76
2020/12/15 00:49:37;;;;;;;3.05;2.05;;;;;;;;;;5068367;28;20086;-73
2020/12/15 00:52:04;;;;;;;3.15;1.90;;;;;;;;;;5070434;28;20484;-76
2020/12/15 00:54:30;;;;;;;3.03;2.00;;;;;;;;;;5069915;28;20040;-72
2020/12/15 00:56:56;;;;;;;2.90;1.90;;;;;;;;;;5068759;28;20403;-72
2020/12/15 00:59:43;;;;;;;2.92;2.10;;;;;;;;;;5068971;28;20071;-73
2020/12/15 01:02:09;;;;;;;2.83;2.13;;;;;;;;;;5070519;28;20078;-73
2020/12/15 01:04:55;;;;;;;3.70;2.17;;;;;;;;;;5054690;28;20054;-75
2020/12/15 01:07:42;;;;;;;3.47;2.28;;;;;;;;;;5069208;28;20138;-73
2020/12/15 01:10:08;;;;;;;3.55;2.50;;;;;;;;;;5068807;28;20056;-71
2020/12/15 01:12:34;;;;;;;3.08;2.20;;;;;;;;;;5069241;28;20048;-74
2020/12/15 01:15:21;;;;;;;2.70;2.13;;;;;;;;;;5068566;28;20040;-74
2020/12/15 01:17:47;;;;;;;3.08;2.38;;;;;;;;;;5069685;28;20768;-79
2020/12/15 01:20:13;;;;;;;2.75;2.08;;;;;;;;;;5069658;28;20883;-74
2020/12/15 01:22:40;;;;;;;3.25;2.17;;;;;;;;;;5070353;28;20075;-77
2020/12/15 01:25:06;;;;;;;2.67;1.95;;;;;;;;;;5068195;28;20044;-73
2020/12/15 01:27:33;;;;;;;2.85;2.10;;;;;;;;;;5069815;28;20056;-72
2020/12/15 01:30:00;;;;;;;3.13;2.10;;;;;;;;;;5069725;28;20484;-76
2020/12/15 01:32:26;;;;;;;2.97;2.20;;;;;;;;;;5068633;28;20029;-76
2020/12/15 01:35:13;;;;;;;3.08;2.50;;;;;;;;;;5054527;28;20184;-73
2020/12/15 01:37:59;;;;;;;2.63;2.20;;;;;;;;;;5055226;28;20131;-75
2020/12/15 01:40:25;;;;;;;3.78;2.50;;;;;;;;;;5068008;28;20347;-74
2020/12/15 01:42:51;;;;;;;3.42;2.10;;;;;;;;;;5070182;28;20616;-71
2020/12/15 01:45:17;;;;;;;3.60;2.10;;;;;;;;;;5070436;28;20060;-73
2020/12/15 01:47:44;;;;;;;3.55;2.28;;;;;;;;;;5069724;28;20076;-77
2020/12/15 01:50:10;;;;;;;3.40;2.20;;;;;;;;;;5068433;28;20036;-78
2020/12/15 01:52:37;;;;;;;2.63;1.98;;;;;;;;;;5069282;28;20028;-77
2020/12/15 01:55:03;;;;;;;3.63;2.35;;;;;;;;;;5069029;28;20049;-77
2020/12/15 01:57:29;;;;;;;3.20;2.20;;;;;;;;;;5051789;28;20050;-76
2020/12/15 01:59:56;;;;;;;2.95;2.08;;;;;;;;;;5067702;28;20510;-79
2020/12/15 02:02:22;;;;;;;3.42;2.33;;;;;;;;;;5069898;28;20072;-71
2020/12/15 02:04:49;;;;;;;2.95;2.30;;;;;;;;;;5051797;28;20041;-73
2020/12/15 02:07:16;;;;;;;3.15;2.22;;;;;;;;;;5069064;28;20044;-73
2020/12/15 02:09:42;;;;;;;2.50;2.10;;;;;;;;;;5069085;28;20128;-74
2020/12/15 02:12:09;;;;;;;3.63;2.10;;;;;;;;;;5068919;28;20118;-77
2020/12/15 02:14:35;;;;;;;2.55;1.90;;;;;;;;;;5069531;28;20036;-76
2020/12/15 02:17:03;;;;;;;2.85;1.88;;;;;;;;;;5070032;28;20029;-73
2020/12/15 02:19:29;;;;;;;3.08;2.03;;;;;;;;;;5069496;28;20143;-77
2020/12/15 02:22:20;;;;;;;2.63;2.08;;;;;;;;;;5053883;28;20044;-77
2020/12/15 02:24:47;;;;;;;3.88;2.15;;;;;;;;;;5068993;28;20378;-76
2020/12/15 02:27:13;;;;;;;2.92;2.17;;;;;;;;;;5068297;28;20263;-78
2020/12/15 02:29:39;;;;;;;3.78;2.17;;;;;;;;;;5068662;28;20041;-77
2020/12/15 02:32:06;;;;;;;2.78;1.92;;;;;;;;;;5069711;28;20143;-76
2020/12/15 02:34:32;;;;;;;3.90;2.10;;;;;;;;;;5084579;28;20068;-78
2020/12/15 02:36:59;;;;;;;3.05;1.98;;;;;;;;;;5067376;28;20499;-73
2020/12/15 02:39:45;;;;;;;4.57;2.00;;;;;;;;;;5054079;28;20086;-75
2020/12/15 02:42:11;;;;;;;3.55;2.00;;;;;;;;;;5067691;28;20048;-75
2020/12/15 02:44:37;;;;;;;3.33;2.20;;;;;;;;;;5071313;28;20089;-75
2020/12/15 02:47:04;;;;;;;2.85;1.90;;;;;;;;;;5088527;28;20071;-73
2020/12/15 02:49:50;;;;;;;2.80;2.05;;;;;;;;;;5057000;28;20535;-77
2020/12/15 02:52:37;;;;;;;2.97;2.28;;;;;;;;;;5071714;28;20136;-73
2020/12/15 02:55:23;;;;;;;2.75;2.15;;;;;;;;;;5070103;28;20178;-76
2020/12/15 02:58:09;;;;;;;3.28;2.17;;;;;;;;;;5071855;28;20135;-77
2020/12/15 03:00:35;;;;;;;3.28;2.10;;;;;;;;;;5072525;28;20044;-77
2020/12/15 03:03:21;;;;;;;3.33;2.05;;;;;;;;;;5070429;28;20576;-80
2020/12/15 03:05:48;;;;;;;2.80;2.13;;;;;;;;;;5071037;28;20491;-72
2020/12/15 03:08:14;;;;;;;3.80;1.80;;;;;;;;;;5072852;28;20076;-76
2020/12/15 03:10:40;;;;;;;4.45;2.20;;;;;;;;;;5068477;28;20067;-77
2020/12/15 03:13:07;;;;;;;2.92;2.00;;;;;;;;;;5088331;28;20040;-80
2020/12/15 03:15:33;;;;;;;2.72;1.92;;;;;;;;;;5072440;28;20036;-74
2020/12/15 03:17:59;;;;;;;2.92;1.83;;;;;;;;;;5087118;28;20337;-76
2020/12/15 03:20:25;;;;;;;4.10;2.38;;;;;;;;;;5070451;28;20438;-77
2020/12/15 03:23:12;;;;;;;3.15;2.30;;;;;;;;;;5071310;28;20221;-78
2020/12/15 03:25:58;;;;;;;3.05;2.10;;;;;;;;;;5055424;28;20054;-74
2020/12/15 03:28:24;;;;;;;4.80;2.42;;;;;;;;;;5071816;28;20470;-72
2020/12/15 03:31:10;;;;;;;5.03;2.60;;;;;;;;;;5070211;28;20044;-73
2020/12/15 03:33:37;;;;;;;3.28;2.20;;;;;;;;;;5072157;28;20036;-76
2020/12/15 03:36:04;;;;;;;2.35;1.90;;;;;;;;;;5072341;28;20040;-75
2020/12/15 03:38:30;;;;;;;3.15;2.10;;;;;;;;;;5053259;28;20032;-73
2020/12/15 03:40:56;;;;;;;3.13;2.10;;;;;;;;;;5070736;28;20036;-75
2020/12/15 03:43:22;;;;;;;4.82;2.22;;;;;;;;;;5072284;28;20052;-75
2020/12/15 03:45:49;;;;;;;3.15;2.10;;;;;;;;;;5070056;28;20112;-74
2020/12/15 03:48:15;;;;;;;3.00;2.30;;;;;;;;;;5054153;28;20044;-73
2020/12/15 03:50:41;;;;;;;3.33;2.10;;;;;;;;;;5071098;28;20384;-76
2020/12/15 03:53:27;;;;;;;2.60;1.95;;;;;;;;;;5055905;28;20451;-72
2020/12/15 03:56:14;;;;;;;2.85;2.17;;;;;;;;;;5054871;28;20131;-77
2020/12/15 03:58:41;;;;;;;3.10;2.20;;;;;;;;;;5070293;28;20036;-72
2020/12/15 04:01:07;;;;;;;3.00;2.20;;;;;;;;;;5070901;28;20064;-75
2020/12/15 04:03:53;;;;;;;3.20;2.00;;;;;;;;;;5056225;28;20408;-74
2020/12/15 04:06:20;;;;;;;3.03;1.92;;;;;;;;;;5052457;28;20787;-74
2020/12/15 04:08:46;;;;;;;3.30;2.03;;;;;;;;;;5053626;28;20040;-72
2020/12/15 04:11:12;;;;;;;3.30;2.15;;;;;;;;;;5051653;28;20041;-76
2020/12/15 04:13:39;;;;;;;3.05;2.30;;;;;;;;;;5070602;28;20044;-79
2020/12/15 04:16:05;;;;;;;4.93;2.40;;;;;;;;;;5071105;28;20125;-78
2020/12/15 04:18:31;;;;;;;2.55;2.08;;;;;;;;;;5071103;28;20133;-74
2020/12/15 04:20:57;;;;;;;2.60;2.05;;;;;;;;;;5070315;28;20071;-77
2020/12/15 04:23:26;;;;;;;3.00;2.10;;;;;;;;;;5053193;28;20044;-78
2020/12/15 04:25:54;;;;;;;3.70;1.92;;;;;;;;;;5051644;28;20063;-74
2020/12/15 04:28:20;;;;;;;2.90;2.05;;;;;;;;;;5070008;28;20049;-73
2020/12/15 04:30:46;;;;;;;4.13;2.25;;;;;;;;;;5071037;28;20090;-74
2020/12/15 04:33:13;;;;;;;3.50;2.20;;;;;;;;;;5069937;28;20038;-78
2020/12/15 04:35:40;;;;;;;3.42;2.20;;;;;;;;;;5069906;28;20045;-75
2020/12/15 04:38:26;;;;;;;3.45;2.28;;;;;;;;;;5069477;28;20041;-74
2020/12/15 04:41:12;;;;;;;3.88;2.30;;;;;;;;;;5053683;28;20503;-73
2020/12/15 04:43:41;;;;;;;3.67;2.30;;;;;;;;;;5069098;28;20044;-76
2020/12/15 04:46:29;;;;;;;2.90;2.10;;;;;;;;;;5069239;28;20217;-74
2020/12/15 04:49:20;;;;;;;3.55;2.13;;;;;;;;;;5054778;28;20045;-76
2020/12/15 04:52:06;;;;;;;3.15;2.20;;;;;;;;;;5069215;28;20052;-77
2020/12/15 04:54:33;;;;;;;2.65;1.90;;;;;;;;;;5070262;28;20510;-77
2020/12/15 04:57:01;;;;;;;3.38;2.35;;;;;;;;;;5084466;28;20041;-73
2020/12/15 04:59:48;;;;;;;2.88;2.20;;;;;;;;;;5069386;28;20048;-76
2020/12/15 05:02:15;;;;;;;2.65;2.13;;;;;;;;;;5070270;28;20028;-72
2020/12/15 05:05:02;;;;;;;2.58;1.88;;;;;;;;;;5068915;28;20083;-77
2020/12/15 05:07:28;;;;;;;4.25;2.20;;;;;;;;;;5070154;28;20046;-71
2020/12/15 05:09:54;;;;;;;2.35;2.00;;;;;;;;;;5068613;28;20082;-74
2020/12/15 05:12:20;;;;;;;3.53;2.40;;;;;;;;;;5067824;28;20041;-77
2020/12/15 05:15:08;;;;;;;3.05;2.35;;;;;;;;;;5068790;28;20530;-73
2020/12/15 05:18:01;;;;;;;3.45;2.10;;;;;;;;;;5068455;28;20044;-76
2020/12/15 05:20:28;;;;;;;3.25;2.15;;;;;;;;;;5069142;28;20468;-75
2020/12/15 05:23:19;;;;;;;3.30;2.20;;;;;;;;;;5054946;28;20040;-73
2020/12/15 05:25:46;;;;;;;3.60;2.50;;;;;;;;;;5067663;28;20431;-74
2020/12/15 05:28:13;;;;;;;4.32;2.30;;;;;;;;;;5068696;28;20202;-76
2020/12/15 05:31:00;;;;;;;2.92;2.15;;;;;;;;;;5053804;28;20055;-76
2020/12/15 05:33:26;;;;;;;3.67;2.40;;;;;;;;;;5069412;28;20044;-76
2020/12/15 05:35:53;;;;;;;4.82;2.30;;;;;;;;;;5051922;28;20465;-78
2020/12/15 05:38:19;;;;;;;2.83;2.03;;;;;;;;;;5051357;28;20032;-77
2020/12/15 05:41:06;;;;;;;4.05;2.22;;;;;;;;;;5053394;28;20469;-80
2020/12/15 05:43:52;;;;;;;;;;;;;;;;;;5055240;28;20048;-78
2020/12/15 05:46:20;;;;;;;3.83;2.35;;;;;;;;;;5069230;28;20240;-74
2020/12/15 05:48:46;;;;;;;3.65;2.22;;;;;;;;;;5069502;28;20044;-74
2020/12/15 05:51:13;;;;;;;4.45;2.58;;;;;;;;;;5069759;28;20045;-70
2020/12/15 05:53:39;;;;;;;4.30;2.80;;;;;;;;;;5069010;28;20044;-74
2020/12/15 05:56:06;;;;;;;2.67;2.05;;;;;;;;;;5068610;28;20044;-74
2020/12/15 05:58:32;;;;;;;3.50;2.20;;;;;;;;;;5069471;28;20090;-73
2020/12/15 06:01:09;;;;;;;3.08;2.47;;;;;;;;;;5068544;28;20036;-76
2020/12/15 06:03:35;;;;;;;2.95;2.10;;;;;;;;;;5069505;28;20041;-74
2020/12/15 06:06:03;;;;;;;3.42;2.33;;;;;;;;;;5069361;28;20052;-75
2020/12/15 06:08:30;;;;;;;2.80;2.15;;;;;;;;;;5069716;28;20113;-74
2020/12/15 06:10:57;;;;;;;2.65;2.10;;;;;;;;;;5067636;28;20211;-74
2020/12/15 06:13:23;;;;;;;3.45;2.40;;;;;;;;;;5050724;28;20037;-76
2020/12/15 06:16:09;;;;;;;4.93;2.40;;;;;;;;;;5054404;28;20179;-76
2020/12/15 06:18:36;;;;;;;3.75;2.20;;;;;;;;;;5053763;28;20106;-77
2020/12/15 06:21:23;;;;;;;3.38;2.42;;;;;;;;;;5056985;28;20060;-73
2020/12/15 06:24:09;;;;;;;3.10;2.17;;;;;;;;;;5044226;28;20468;-72
2020/12/15 06:26:36;;;;;;;3.50;2.38;;;;;;;;;;5053151;28;20100;-75
2020/12/15 06:29:30;;;;;;;3.97;2.30;;;;;;;;;;5057927;28;20111;-73
2020/12/15 06:31:56;;;;;;;3.65;2.40;;;;;;;;;;5073227;28;20106;-72
2020/12/15 06:34:44;;;;;;;3.70;2.53;;;;;;;;;;5070958;28;20426;-72
2020/12/15 06:37:11;;;;;;;3.30;2.38;;;;;;;;;;5071811;28;20043;-78
2020/12/15 06:39:37;;;;;;;4.15;2.50;;;;;;;;;;5072716;28;20040;-73
2020/12/15 06:42:23;;;;;;;4.00;2.58;;;;;;;;;;5056883;28;20084;-78
2020/12/15 06:45:07;;;;;;;3.47;2.45;;;;;;;;;;5073101;28;20047;-75
2020/12/15 06:47:57;;;;;;;3.08;2.05;;;;;;;;;;5071294;28;20044;-74
2020/12/15 06:50:23;;;;;;;4.38;2.75;;;;;;;;;;5072426;28;20136;-76
2020/12/15 06:53:10;;;;;;;3.95;2.53;;;;;;;;;;5071480;28;20480;-76
2020/12/15 06:55:37;;;;;;;3.35;2.53;;;;;;;;;;5069298;28;20032;-76
2020/12/15 06:58:03;;;;;;;3.40;2.40;;;;;;;;;;5071170;28;20041;-72
2020/12/15 07:00:49;;;;;;;3.85;2.55;;;;;;;;;;5071520;28;20170;-74
2020/12/15 07:03:17;;;;;;;2.95;2.28;;;;;;;;;;5070823;28;20051;-75
2020/12/15 07:05:44;;;;;;;3.30;2.35;;;;;;;;;;5072130;28;20055;-73
2020/12/15 07:08:11;;;;;;;3.75;2.42;;;;;;;;;;5071498;28;20108;-76
2020/12/15 07:10:44;;;;;;;3.85;2.58;;;;;;;;;;5070039;28;20425;-76
2020/12/15 07:13:11;;;;;;;3.90;2.60;;;;;;;;;;5072366;28;20492;-74
2020/12/15 07:15:38;;;;;;;4.53;2.78;;;;;;;;;;5072092;28;20138;-75
2020/12/15 07:18:24;;;;;;;4.20;2.53;;;;;;;;;;5057070;28;20048;-73
2020/12/15 07:20:51;;;;;;;3.00;2.33;;;;;;;;;;5070694;28;20037;-74
2020/12/15 07:23:17;;;;;;;5.00;2.40;;;;;;;;;;5071878;28;20060;-75
2020/12/15 07:26:11;;;;;;;6.55;2.60;;;;;;;;;;5069036;28;20052;-77
2020/12/15 07:28:38;;;;;;;3.25;2.30;;;;;;;;;;5071619;28;20052;-75
2020/12/15 07:31:04;;;;;;;3.63;2.40;;;;;;;;;;5068881;28;20504;-74
2020/12/15 07:33:30;;;;;;;4.65;2.50;;;;;;;;;;5053692;28;20041;-76
2020/12/15 07:35:57;;;;;;;3.50;2.53;;;;;;;;;;5072006;28;20044;-75
2020/12/15 07:38:45;;;;;;;3.45;2.63;;;;;;;;;;5056078;28;20135;-74
2020/12/15 07:41:13;;;;;;;4.45;2.72;;;;;;;;;;5070341;28;20040;-75
2020/12/15 07:43:40;;;;;;;3.60;2.67;;;;;;;;;;5053926;28;20046;-73
2020/12/15 07:46:15;;;;;;;3.83;2.35;;;;;;;;;;5071108;28;20457;-74
2020/12/15 07:48:42;;;;;;;4.88;2.50;;;;;;;;;;5053633;28;20041;-75
2020/12/15 07:51:08;;;;;;;4.38;2.67;;;;;;;;;;5070843;28;20036;-74
2020/12/15 07:53:35;;;;;;;4.22;2.50;;;;;;;;;;5071595;28;20094;-77
2020/12/15 07:56:04;;;;;;;3.30;2.30;;;;;;;;;;5070481;28;20153;-77
2020/12/15 07:58:30;;;;;;;3.75;2.50;;;;;;;;;;5070447;28;20123;-76
2020/12/15 08:01:27;;;;;;;3.97;2.80;;;;;;;;;;5056418;28;20049;-71
2020/12/15 08:04:14;;;;;;;3.90;2.63;;;;;;;;;;5056291;28;20060;-75
2020/12/15 08:06:42;;;;;;;3.20;2.33;;;;;;;;;;5070268;28;20048;-74
2020/12/15 08:09:10;;;;;;;3.92;2.50;;;;;;;;;;5071669;28;20037;-74
2020/12/15 08:11:56;;;;;;;3.20;2.42;;;;;;;;;;5054946;28;20051;-77
2020/12/15 08:14:23;;;;;;;3.20;2.20;;;;;;;;;;5070667;28;20045;-76
2020/12/15 08:17:12;;;;;;;3.70;2.70;;;;;;;;;;5056326;28;20040;-72
2020/12/15 08:20:00;;;;;;;4.55;2.85;;;;;;;;;;5055026;28;20048;-77
2020/12/15 08:22:26;;;;;;;3.40;2.20;;;;;;;;;;5070621;28;20048;-74
2020/12/15 08:24:55;;;;;;;3.90;2.50;;;;;;;;;;5070680;28;20048;-75
2020/12/15 08:27:23;;;;;;;3.25;2.47;;;;;;;;;;5069496;28;20051;-76
2020/12/15 08:29:49;;;;;;;3.88;2.70;;;;;;;;;;5052523;28;20135;-74
2020/12/15 08:32:25;;;;;;;3.95;2.55;;;;;;;;;;5077794;28;20138;-75
2020/12/15 08:34:57;;;;;;;4.80;2.83;;;;;;;;;;5069787;28;20102;-74
2020/12/15 08:37:24;;;;;;;4.20;3.00;;;;;;;;;;5070620;28;20060;-74
2020/12/15 08:39:51;;;;;;;4.03;2.45;;;;;;;;;;5085782;28;20209;-73
2020/12/15 08:42:17;;;;;;;3.20;2.10;;;;;;;;;;5068787;28;20044;-75
2020/12/15 08:44:44;;;;;;;4.88;2.85;;;;;;;;;;5085632;28;20404;-75
2020/12/15 08:47:10;;;;;;;5.40;2.72;;;;;;;;;;5070465;28;20042;-73
2020/12/15 08:49:36;;;;;;;3.83;2.50;;;;;;;;;;5069177;28;20046;-77
2020/12/15 08:52:23;;;;;;;4.95;2.45;;;;;;;;;;5069121;28;20040;-75
2020/12/15 08:55:09;;;;;;;3.35;2.53;;;;;;;;;;5066724;28;20045;-76
2020/12/15 08:57:37;;;;;;;3.35;2.45;;;;;;;;;;5070052;28;20028;-78
2020/12/15 09:00:14;;;;;;;4.57;2.70;;;;;;;;;;5070455;28;20113;-78
2020/12/15 09:02:40;;;;;;;3.90;2.42;;;;;;;;;;5067870;28;20047;-74
2020/12/15 09:05:08;;;;;;;5.32;2.53;;;;;;;;;;5068644;28;20398;-75
2020/12/15 09:07:35;;;;;;;4.13;2.75;;;;;;;;;;5068605;28;20046;-77
2020/12/15 09:10:10;;;;;;;4.40;2.75;;;;;;;;;;5068239;28;20044;-76
2020/12/15 09:12:56;;;;;;;4.10;2.65;;;;;;;;;;5069179;28;20136;-77
2020/12/15 09:15:22;;;;;;;4.18;2.47;;;;;;;;;;5068957;28;20056;-75
2020/12/15 09:17:49;;;;;;;4.03;2.70;;;;;;;;;;5069249;28;20037;-74
2020/12/15 09:20:23;;;;;;;3.65;2.42;;;;;;;;;;5068416;28;20044;-78
2020/12/15 09:23:10;;;;;;;3.38;2.50;;;;;;;;;;5068132;28;20067;-74
2020/12/15 09:25:36;;;;;;;3.85;2.60;;;;;;;;;;5067048;28;20683;-73
2020/12/15 09:28:27;;;;;;;5.00;3.05;;;;;;;;;;5068394;28;20064;-76
2020/12/15 09:30:53;;;;;;;3.92;2.53;;;;;;;;;;5067966;28;20127;-72
2020/12/15 09:33:20;;;;;;;5.82;2.95;;;;;;;;;;5052444;28;20047;-74
2020/12/15 09:36:06;;;;;;;4.55;3.08;;;;;;;;;;5040752;28;20044;-76
2020/12/15 09:38:52;;;;;;;3.38;2.60;;;;;;;;;;5054420;28;20040;-72
2020/12/15 09:41:19;;;;;;;3.90;2.50;;;;;;;;;;5068547;28;20132;-76
2020/12/15 09:43:46;;;;;;;4.43;2.85;;;;;;;;;;5069312;28;20149;-72
2020/12/15 09:46:32;;;;;;;3.67;2.67;;;;;;;;;;5054662;28;20112;-72
2020/12/15 09:48:59;;;;;;;3.08;2.50;;;;;;;;;;5070047;28;20045;-73
2020/12/15 09:51:25;;;;;;;3.28;2.55;;;;;;;;;;5067256;28;20111;-73
2020/12/15 09:53:52;;;;;;;4.38;2.53;;;;;;;;;;5067878;28;20472;-78
2020/12/15 09:56:18;;;;;;;5.55;3.08;;;;;;;;;;5083561;28;20396;-75
2020/12/15 09:59:04;;;;;;;3.45;2.50;;;;;;;;;;5067392;28;20456;-74
2020/12/15 10:01:31;;;;;;;5.15;3.13;;;;;;;;;;5084842;28;20041;-74
2020/12/15 10:03:57;;;;;;;4.47;3.08;;;;;;;;;;5070151;28;20041;-75
2020/12/15 10:06:23;;;;;;;4.45;2.60;;;;;;;;;;5068033;28;20053;-74
2020/12/15 10:08:50;;;;;;;7.00;2.83;;;;;;;;;;5084786;28;20123;-75
2020/12/15 10:11:17;;;;;;;4.28;2.88;;;;;;;;;;5068084;28;20035;-76
2020/12/15 10:14:03;;;;;;;;;;;;;;;;;;5081999;28;20190;-77
2020/12/15 10:16:29;;;;;;;4.23;2.70;;;;;;;;;;5069491;28;19920;-78
2020/12/15 10:18:56;;;;;;;4.68;2.42;;;;;;;;;;5068530;28;20037;-78
2020/12/15 10:21:42;;;;;;;6.95;3.05;;;;;;;;;;5053674;28;20045;-75
2020/12/15 10:24:29;;;;;;;3.47;2.63;;;;;;;;;;5067178;28;20040;-75
2020/12/15 10:26:55;;;;;;;5.13;2.80;;;;;;;;;;5067487;28;20070;-75
2020/12/15 10:29:41;;;;;;;5.07;2.80;;;;;;;;;;5082004;28;20055;-75
2020/12/15 10:32:28;;;;;;;7.03;3.10;;;;;;;;;;5087716;28;20045;-78
2020/12/15 10:34:54;;;;;;;5.95;2.60;;;;;;;;;;5068678;28;20036;-72
2020/12/15 10:37:23;;;;;;;5.60;2.85;;;;;;;;;;5068327;28;20045;-73
2020/12/15 10:40:09;;;;;;;3.33;2.50;;;;;;;;;;5065662;28;20114;-77
2020/12/15 10:42:36;;;;;;;4.57;2.53;;;;;;;;;;5064007;28;20041;-78
2020/12/15 10:45:22;;;;;;;4.50;3.22;;;;;;;;;;5053539;28;20068;-75
2020/12/15 10:48:09;;;;;;;5.95;4.18;;;;;;;;;;5039438;28;20070;-76
2020/12/15 10:50:35;;;;;;;4.80;3.60;;;;;;;;;;5067748;28;20072;-74
2020/12/15 10:53:02;;;;;;;5.45;3.85;;;;;;;;;;5067699;28;20460;-77
2020/12/15 10:55:29;;;;;;;6.15;3.85;;;;;;;;;;5066250;28;20046;-75
2020/12/15 10:57:55;;;;;;;7.32;4.20;;;;;;;;;;5068999;28;20183;-76
2020/12/15 11:00:21;;;;;;;6.68;4.28;;;;;;;;;;5068754;28;20052;-74
2020/12/15 11:02:48;;;;;;;6.05;3.97;;;;;;;;;;5083834;28;20135;-74
2020/12/15 11:05:14;;;;;;;6.28;3.92;;;;;;;;;;5087405;28;20048;-75
2020/12/15 11:07:40;;;;;;;7.95;4.45;;;;;;;;;;5072141;28;20412;-78
2020/12/15 11:10:07;;;;;;;8.85;4.55;;;;;;;;;;5070504;28;20143;-75
2020/12/15 11:12:53;;;;;;;6.88;4.47;;;;;;;;;;5085164;28;20041;-74
2020/12/15 11:15:19;;;;;;;7.55;3.90;;;;;;;;;;5071689;28;20441;-76
2020/12/15 11:17:46;;;;;;;6.05;4.10;;;;;;;;;;5088211;28;20060;-75
2020/12/15 11:20:12;;;;;;;6.05;4.00;;;;;;;;;;5087739;28;20151;-73
2020/12/15 11:22:40;;;;;;;5.82;4.43;;;;;;;;;;5069800;28;20127;-75
2020/12/15 11:25:06;;;;;;;6.32;4.57;;;;;;;;;;5069431;28;20059;-79
2020/12/15 11:27:33;;;;;;;5.38;3.72;;;;;;;;;;5054291;28;20053;-76
2020/12/15 11:29:59;;;;;;;7.72;4.20;;;;;;;;;;5063014;28;20045;-77
2020/12/15 11:32:25;;;;;;;4.88;3.53;;;;;;;;;;5032089;28;20109;-75
2020/12/15 11:34:52;;;;;;;5.53;4.18;;;;;;;;;;5032222;28;20030;-75
2020/12/15 11:37:18;;;;;;;6.65;4.25;;;;;;;;;;5029533;28;20458;-78
2020/12/15 11:39:44;;;;;;;7.18;4.07;;;;;;;;;;5031269;28;20067;-75
2020/12/15 11:42:12;;;;;;;4.88;3.70;;;;;;;;;;5029411;28;20041;-73
2020/12/15 11:45:00;;;;;;;5.50;4.13;;;;;;;;;;5030334;28;20045;-76
2020/12/15 11:47:26;;;;;;;6.80;4.13;;;;;;;;;;5030614;28;20068;-76
2020/12/15 11:50:12;;;;;;;5.75;3.80;;;;;;;;;;5015990;28;20042;-74
2020/12/15 11:52:39;;;;;;;5.35;3.60;;;;;;;;;;5013476;28;20065;-77
2020/12/15 11:55:25;;;;;;;5.63;3.80;;;;;;;;;;5014998;28;20051;-76
2020/12/15 11:58:11;;;;;;;5.22;3.70;;;;;;;;;;5016515;28;20038;-77
2020/12/15 12:00:38;;;;;;;5.07;3.72;;;;;;;;;;5031632;28;20048;-77
2020/12/15 12:03:24;;;;;;;5.15;4.10;;;;;;;;;;5030140;28;20057;-74
2020/12/15 12:05:50;;;;;;;5.75;3.92;;;;;;;;;;5029691;28;20063;-73
2020/12/15 12:08:36;;;;;;;4.53;3.58;;;;;;;;;;5030410;28;20103;-74
2020/12/15 12:11:23;;;;;;;5.60;4.25;;;;;;;;;;5014181;28;20041;-77
2020/12/15 12:13:49;;;;;;;5.47;3.92;;;;;;;;;;5031923;28;20069;-74
2020/12/15 12:16:15;;;;;;;5.93;3.65;;;;;;;;;;5030935;28;20041;-74
2020/12/15 12:18:42;;;;;;;8.27;3.65;;;;;;;;;;5030635;28;20799;-75
2020/12/15 12:21:28;;;;;;;7.68;4.05;;;;;;;;;;5029776;28;20158;-72
2020/12/15 12:23:54;;;;;;;7.15;4.28;;;;;;;;;;5031145;28;20504;-74
2020/12/15 12:26:41;;;;;;;4.28;3.20;;;;;;;;;;5038296;28;20080;-73
2020/12/15 12:29:27;;;;;;;6.18;4.13;;;;;;;;;;5055637;28;20495;-74
2020/12/15 12:31:54;;;;;;;6.03;3.58;;;;;;;;;;5069235;28;20135;-75
2020/12/15 12:34:41;;;;;;;6.45;3.88;;;;;;;;;;5048988;28;20072;-74
2020/12/15 12:37:09;;;;;;;5.55;3.67;;;;;;;;;;5049330;28;20041;-75
2020/12/15 12:39:56;;;;;;;5.15;3.53;;;;;;;;;;5034715;28;20044;-74
2020/12/15 12:42:22;;;;;;;5.25;3.80;;;;;;;;;;5048662;28;20044;-76
2020/12/15 12:44:49;;;;;;;6.70;4.28;;;;;;;;;;5050989;28;20135;-75
2020/12/15 12:47:15;;;;;;;5.32;4.07;;;;;;;;;;5050504;28;20037;-74
2020/12/15 12:49:42;;;;;;;6.10;3.97;;;;;;;;;;5050716;28;20137;-76
2020/12/15 12:52:08;;;;;;;5.10;3.67;;;;;;;;;;5049471;28;20037;-75
2020/12/15 12:54:54;;;;;;;6.68;3.90;;;;;;;;;;5048548;28;20111;-77
2020/12/15 12:57:21;;;;;;;4.15;3.55;;;;;;;;;;5049897;28;20071;-74
2020/12/15 12:59:47;;;;;;;6.07;3.80;;;;;;;;;;5050740;28;20036;-75
2020/12/15 13:02:34;;;;;;;4.40;3.38;;;;;;;;;;5034799;28;20045;-76
2020/12/15 13:05:00;;;;;;;6.13;3.95;;;;;;;;;;5032822;28;20033;-76
2020/12/15 13:07:46;;;;;;;6.45;3.50;;;;;;;;;;5035074;28;20061;-75
2020/12/15 13:10:32;;;;;;;4.78;3.83;;;;;;;;;;5047133;28;20114;-76
2020/12/15 13:12:59;;;;;;;6.45;4.03;;;;;;;;;;5050561;28;20045;-74
2020/12/15 13:15:26;;;;;;;5.28;3.67;;;;;;;;;;5048348;28;20037;-73
2020/12/15 13:17:52;;;;;;;5.68;3.95;;;;;;;;;;5048677;28;20049;-74
2020/12/15 13:20:18;;;;;;;6.10;3.85;;;;;;;;;;5048541;28;20136;-74
2020/12/15 13:22:45;;;;;;;5.82;3.97;;;;;;;;;;5049371;28;20151;-74
2020/12/15 13:25:12;;;;;;;4.78;4.07;;;;;;;;;;5048708;28;20449;-78
2020/12/15 13:27:39;;;;;;;5.55;3.67;;;;;;;;;;5048310;28;20053;-74
2020/12/15 13:30:25;;;;;;;6.00;3.83;;;;;;;;;;5034160;28;20088;-77
2020/12/15 13:32:51;;;;;;;7.50;4.18;;;;;;;;;;5065336;28;20047;-75
2020/12/15 13:35:18;;;;;;;5.82;3.90;;;;;;;;;;5048458;28;20123;-75
2020/12/15 13:38:04;;;;;;;7.28;4.13;;;;;;;;;;5048326;28;20080;-77
2020/12/15 13:40:50;;;;;;;6.07;4.00;;;;;;;;;;5033187;28;20063;-77
2020/12/15 13:43:17;;;;;;;5.70;4.30;;;;;;;;;;5047894;28;20045;-74
2020/12/15 13:45:45;;;;;;;5.57;4.07;;;;;;;;;;5049649;28;20041;-76
2020/12/15 13:48:12;;;;;;;6.45;4.18;;;;;;;;;;5048328;28;20053;-75
2020/12/15 13:50:59;;;;;;;6.07;4.13;;;;;;;;;;5019884;28;20771;-76
2020/12/15 13:53:25;;;;;;;6.53;4.68;;;;;;;;;;5048212;28;20128;-77
2020/12/15 13:56:12;;;;;;;6.13;4.30;;;;;;;;;;5046857;28;20433;-74
2020/12/15 13:58:58;;;;;;;6.15;4.45;;;;;;;;;;5033887;28;20045;-77
2020/12/15 14:01:45;;;;;;;6.03;4.45;;;;;;;;;;5047769;28;20048;-75
2020/12/15 14:04:11;;;;;;;9.10;5.13;;;;;;;;;;5048935;28;20044;-74
2020/12/15 14:06:38;;;;;;;5.72;4.13;;;;;;;;;;5047555;28;20441;-74
2020/12/15 14:09:24;;;;;;;7.40;4.53;;;;;;;;;;5033881;28;20067;-74
2020/12/15 14:12:10;;;;;;;5.60;4.18;;;;;;;;;;5047299;28;20361;-76
2020/12/15 14:14:37;;;;;;;7.47;4.82;;;;;;;;;;5049355;28;20048;-73
2020/12/15 14:17:04;;;;;;;5.10;4.13;;;;;;;;;;5048000;28;20424;-77
2020/12/15 14:19:31;;;;;;;6.03;4.30;;;;;;;;;;5048643;28;20132;-75
2020/12/15 14:21:57;;;;;;;6.13;4.63;;;;;;;;;;5049273;28;20040;-76
2020/12/15 14:24:44;;;;;;;5.65;4.50;;;;;;;;;;5033673;28;20041;-75
2020/12/15 14:27:10;;;;;;;7.00;4.57;;;;;;;;;;5057014;28;20087;-77
2020/12/15 14:29:57;;;;;;;5.22;4.13;;;;;;;;;;5067934;28;20071;-74
2020/12/15 14:32:23;;;;;;;8.25;3.95;;;;;;;;;;5068750;28;20119;-77
2020/12/15 14:35:09;;;;;;;6.78;5.07;;;;;;;;;;5054074;28;20083;-76
2020/12/15 14:37:35;;;;;;;8.05;4.95;;;;;;;;;;5069048;28;20036;-76
2020/12/15 14:40:03;;;;;;;5.78;4.47;;;;;;;;;;5070612;28;20348;-75
2020/12/15 14:42:30;;;;;;;6.20;4.75;;;;;;;;;;5073000;28;20032;-77
2020/12/15 14:44:56;;;;;;;7.72;4.28;;;;;;;;;;5055033;28;20044;-76
2020/12/15 14:47:43;;;;;;;8.18;4.50;;;;;;;;;;5043168;28;20037;-77
2020/12/15 14:50:29;;;;;;;6.82;4.22;;;;;;;;;;5057179;28;20198;-76
2020/12/15 14:53:15;;;;;;;5.88;4.03;;;;;;;;;;5056762;28;20427;-77
2020/12/15 14:56:02;;;;;;;7.05;4.57;;;;;;;;;;5042675;28;20041;-74
2020/12/15 14:58:49;;;;;;;6.90;4.30;;;;;;;;;;5057907;28;20085;-75
2020/12/15 15:01:16;;;;;;;5.57;4.43;;;;;;;;;;5071740;28;20425;-76
2020/12/15 15:03:42;;;;;;;5.88;4.85;;;;;;;;;;5054573;28;20046;-77
2020/12/15 15:06:09;;;;;;;7.00;4.95;;;;;;;;;;5072639;28;20048;-74
2020/12/15 15:08:56;;;;;;;5.88;4.47;;;;;;;;;;5042779;28;20436;-75
2020/12/15 15:11:22;;;;;;;8.00;4.95;;;;;;;;;;5070776;28;20043;-74
2020/12/15 15:14:08;;;;;;;7.20;4.78;;;;;;;;;;5057652;28;20040;-75
2020/12/15 15:16:57;;;;;;;7.70;5.35;;;;;;;;;;5043723;28;20135;-77